createdAt,value
2023-03-01T00:00:49.451Z,63.08
2023-03-01T00:03:18.740Z,63.49
2023-03-01T00:05:48.440Z,63.11
2023-03-01T00:08:17.781Z,63.65
2023-03-01T00:10:47.243Z,63.19
2023-03-01T00:13:16.516Z,63.40
2023-03-01T00:15:48.377Z,63.59
2023-03-01T00:18:17.781Z,63.55
2023-03-01T00:20:53.755Z,63.23
2023-03-01T00:23:24.539Z,63.06
2023-03-01T00:25:55.666Z,63.43
2023-03-01T00:28:25.123Z,63.46
2023-03-01T00:31:01.501Z,63.53
2023-03-01T00:33:31.115Z,63.43
2023-03-01T00:36:01.692Z,63.64
2023-03-01T00:38:39.245Z,63.40
2023-03-01T00:41:16.107Z,63.35
2023-03-01T00:43:46.122Z,63.43
2023-03-01T00:46:20.450Z,63.65
2023-03-01T00:48:50.179Z,63.58
2023-03-01T00:51:21.782Z,63.88
2023-03-01T00:53:54.136Z,63.77
2023-03-01T00:56:29.254Z,63.80
2023-03-01T00:58:58.886Z,63.88
2023-03-01T01:01:32.381Z,64.11
2023-03-01T01:04:03.875Z,64.08
2023-03-01T01:06:36.620Z,64.04
2023-03-01T01:09:07.771Z,63.66
2023-03-01T01:11:38.104Z,63.57
2023-03-01T01:14:07.604Z,63.68
2023-03-01T01:16:39.436Z,63.88
2023-03-01T01:19:10.231Z,63.92
2023-03-01T01:21:39.582Z,63.99
2023-03-01T01:24:14.741Z,63.87
2023-03-01T01:26:50.167Z,63.81
2023-03-01T01:29:19.699Z,63.47
2023-03-01T01:31:51.650Z,63.95
2023-03-01T01:34:25.695Z,63.83
2023-03-01T01:37:03.372Z,64.13
2023-03-01T01:39:32.686Z,64.07
2023-03-01T01:42:03.210Z,63.92
2023-03-01T01:44:32.859Z,63.83
2023-03-01T01:47:07.261Z,64.08
2023-03-01T01:49:39.792Z,64.13
2023-03-01T01:52:14.377Z,64.39
2023-03-01T01:54:48.545Z,64.14
2023-03-01T01:57:22.458Z,64.35
2023-03-01T01:59:55.424Z,65.00
2023-03-01T02:02:27.619Z,64.68
2023-03-01T02:05:11.147Z,64.34
2023-03-01T02:07:47.137Z,64.46
2023-03-01T02:10:16.630Z,63.82
2023-03-01T02:12:46.933Z,64.26
2023-03-01T02:15:37.246Z,64.15
2023-03-01T02:18:10.500Z,64.62
2023-03-01T02:20:52.254Z,64.45
2023-03-01T02:23:27.007Z,64.80
2023-03-01T02:26:09.549Z,65.13
2023-03-01T02:28:42.989Z,65.18
2023-03-01T02:31:26.785Z,65.19
2023-03-01T02:33:56.520Z,64.58
2023-03-01T02:39:14.879Z,65.25
2023-03-01T02:41:54.643Z,65.68
2023-03-01T02:44:26.593Z,65.92
2023-03-01T02:47:01.975Z,66.07
2023-03-01T02:49:33.920Z,66.02
2023-03-01T02:52:20.595Z,66.19
2023-03-01T02:54:57.193Z,65.80
2023-03-01T02:57:30.623Z,66.26
2023-03-01T03:00:10.783Z,66.07
2023-03-01T03:02:40.228Z,66.38
2023-03-01T03:05:31.856Z,67.06
2023-03-01T03:08:07.629Z,66.86
2023-03-01T03:10:41.170Z,67.12
2023-03-01T03:13:12.843Z,66.99
2023-03-01T03:15:46.043Z,67.51
2023-03-01T03:18:18.170Z,67.41
2023-03-01T03:20:53.383Z,67.76
2023-03-01T03:23:30.150Z,68.01
2023-03-01T03:25:59.398Z,68.01
2023-03-01T03:28:28.566Z,67.94
2023-03-01T03:31:04.129Z,68.15
2023-03-01T03:33:33.324Z,68.02
2023-03-01T03:36:02.411Z,68.56
2023-03-01T03:38:31.967Z,68.41
2023-03-01T03:41:07.845Z,69.07
2023-03-01T03:43:40.237Z,68.80
2023-03-01T03:46:12.399Z,69.23
2023-03-01T03:48:49.386Z,68.97
2023-03-01T03:51:20.061Z,68.80
2023-03-01T03:53:55.169Z,68.95
2023-03-01T03:56:28.471Z,69.30
2023-03-01T03:58:58.013Z,69.38
2023-03-01T04:01:29.314Z,69.17
2023-03-01T04:04:04.599Z,69.39
2023-03-01T04:06:34.398Z,69.30
2023-03-01T04:09:04.741Z,69.35
2023-03-01T04:11:35.366Z,69.94
2023-03-01T04:14:09.713Z,70.07
2023-03-01T04:16:40.855Z,69.69
2023-03-01T04:19:10.655Z,69.47
2023-03-01T04:21:39.786Z,69.33
2023-03-01T04:24:10.326Z,69.44
2023-03-01T04:26:44.936Z,69.67
2023-03-01T04:29:19.241Z,69.84
2023-03-01T04:31:51.943Z,69.25
2023-03-01T04:34:21.391Z,69.70
2023-03-01T04:36:50.624Z,69.97
2023-03-01T04:39:19.887Z,70.11
2023-03-01T04:41:49.116Z,69.60
2023-03-01T04:44:18.319Z,69.80
2023-03-01T04:46:52.330Z,69.75
2023-03-01T04:49:21.450Z,69.66
2023-03-01T04:51:50.831Z,69.77
2023-03-01T04:54:20.080Z,69.70
2023-03-01T04:56:49.123Z,69.40
2023-03-01T04:59:18.342Z,69.22
2023-03-01T05:01:49.318Z,69.12
2023-03-01T05:04:18.670Z,68.67
2023-03-01T05:06:47.839Z,69.13
2023-03-01T05:09:22.221Z,69.12
2023-03-01T05:11:56.331Z,69.23
2023-03-01T05:14:25.534Z,69.18
2023-03-01T05:17:04.395Z,69.39
2023-03-01T05:19:33.667Z,69.63
2023-03-01T05:22:06.389Z,69.34
2023-03-01T05:24:37.395Z,69.10
2023-03-01T05:27:06.759Z,69.42
2023-03-01T05:29:35.814Z,69.38
2023-03-01T05:32:09.524Z,69.21
2023-03-01T05:34:39.542Z,69.17
2023-03-01T05:37:09.022Z,68.59
2023-03-01T05:39:42.418Z,68.50
2023-03-01T05:42:13.764Z,68.41
2023-03-01T05:44:43.047Z,68.02
2023-03-01T05:47:14.147Z,66.98
2023-03-01T05:49:50.178Z,65.59
2023-03-01T05:52:24.946Z,65.30
2023-03-01T05:57:31.850Z,65.10
2023-03-01T06:00:01.016Z,64.38
2023-03-01T06:02:34.505Z,65.11
2023-03-01T06:05:05.368Z,64.51
2023-03-01T06:07:40.630Z,64.39
2023-03-01T06:10:11.945Z,64.18
2023-03-01T06:12:51.772Z,64.01
2023-03-01T06:15:21.170Z,64.59
2023-03-01T06:17:54.400Z,64.42
2023-03-01T06:20:32.960Z,64.51
2023-03-01T06:23:02.557Z,63.92
2023-03-01T06:25:32.414Z,63.29
2023-03-01T06:28:01.894Z,62.90
2023-03-01T06:30:41.126Z,62.97
2023-03-01T06:33:12.255Z,63.04
2023-03-01T06:35:48.777Z,63.35
2023-03-01T06:38:19.550Z,63.18
2023-03-01T06:40:54.970Z,63.69
2023-03-01T06:43:24.183Z,63.17
2023-03-01T06:45:53.518Z,62.28
2023-03-01T06:48:24.840Z,62.16
2023-03-01T06:50:54.122Z,62.09
2023-03-01T06:53:23.310Z,61.91
2023-03-01T06:55:58.516Z,61.66
2023-03-01T06:58:28.592Z,62.14
2023-03-01T07:03:44.895Z,62.28
2023-03-01T07:06:19.218Z,62.60
2023-03-01T07:08:48.342Z,61.66
2023-03-01T07:11:23.177Z,61.22
2023-03-01T07:13:58.985Z,61.71
2023-03-01T07:16:28.271Z,62.05
2023-03-01T07:18:59.883Z,61.70
2023-03-01T07:21:36.126Z,60.54
2023-03-01T07:24:05.286Z,60.08
2023-03-01T07:26:34.365Z,59.75
2023-03-01T07:29:09.283Z,60.06
2023-03-01T07:31:38.701Z,59.90
2023-03-01T07:34:16.300Z,59.83
2023-03-01T07:36:47.268Z,59.71
2023-03-01T07:39:18.047Z,59.51
2023-03-01T07:41:47.963Z,58.52
2023-03-01T07:44:17.854Z,59.30
2023-03-01T07:46:47.230Z,59.41
2023-03-01T07:49:18.346Z,60.34
2023-03-01T07:51:47.911Z,60.86
2023-03-01T07:54:17.199Z,61.30
2023-03-01T07:56:51.330Z,60.92
2023-03-01T07:59:29.590Z,61.29
2023-03-01T08:02:04.769Z,60.99
2023-03-01T08:04:37.982Z,61.00
2023-03-01T08:07:08.046Z,60.94
2023-03-01T08:09:37.841Z,60.45
2023-03-01T08:12:08.290Z,60.57
2023-03-01T08:14:37.611Z,60.39
2023-03-01T08:17:06.816Z,61.14
2023-03-01T08:19:38.051Z,61.47
2023-03-01T08:22:07.256Z,61.51
2023-03-01T08:24:36.393Z,60.81
2023-03-01T08:27:10.971Z,61.10
2023-03-01T08:29:40.714Z,61.21
2023-03-01T08:32:10.015Z,61.09
2023-03-01T08:34:42.555Z,61.19
2023-03-01T08:37:12.402Z,61.05
2023-03-01T08:39:41.554Z,61.15
2023-03-01T08:42:13.042Z,61.30
2023-03-01T08:44:42.531Z,61.65
2023-03-01T08:47:11.530Z,62.01
2023-03-01T08:49:48.118Z,61.71
2023-03-01T08:54:57.217Z,63.10
2023-03-01T08:57:26.592Z,63.33
2023-03-01T08:59:57.040Z,63.18
2023-03-01T09:02:26.380Z,63.36
2023-03-01T09:04:57.323Z,63.62
2023-03-01T09:07:28.694Z,63.10
2023-03-01T09:10:02.945Z,63.36
2023-03-01T09:12:36.871Z,63.06
2023-03-01T09:15:07.094Z,63.37
2023-03-01T09:17:36.280Z,63.32
2023-03-01T09:20:08.554Z,63.31
2023-03-01T09:22:37.810Z,63.61
2023-03-01T09:25:08.004Z,63.00
2023-03-01T09:27:37.268Z,63.46
2023-03-01T09:30:07.747Z,63.27
2023-03-01T09:32:43.175Z,63.48
2023-03-01T09:35:14.505Z,62.81
2023-03-01T09:37:50.181Z,61.77
2023-03-01T09:40:21.940Z,61.52
2023-03-01T09:43:09.664Z,61.25
2023-03-01T09:45:44.775Z,61.51
2023-03-01T09:48:19.360Z,61.13
2023-03-01T09:50:50.885Z,61.18
2023-03-01T09:56:21.577Z,59.46
2023-03-01T09:58:57.932Z,59.51
2023-03-01T10:01:35.986Z,59.20
2023-03-01T10:04:23.134Z,59.27
2023-03-01T10:07:06.987Z,56.58
2023-03-01T10:09:38.450Z,57.53
2023-03-01T10:12:11.924Z,57.77
2023-03-01T10:14:47.005Z,57.85
2023-03-01T10:17:25.721Z,57.70
2023-03-01T10:19:59.947Z,57.43
2023-03-01T10:22:33.493Z,57.05
2023-03-01T10:25:11.252Z,57.22
2023-03-01T10:27:51.392Z,56.74
2023-03-01T10:30:24.989Z,57.14
2023-03-01T10:32:56.477Z,56.70
2023-03-01T10:35:28.285Z,56.87
2023-03-01T10:38:05.740Z,57.24
2023-03-01T10:40:35.252Z,56.93
2023-03-01T10:43:06.851Z,57.16
2023-03-01T10:45:38.796Z,57.19
2023-03-01T10:48:08.739Z,56.81
2023-03-01T10:50:38.254Z,56.47
2023-03-01T10:53:29.540Z,57.11
2023-03-01T10:56:09.944Z,55.71
2023-03-01T10:59:00.585Z,56.41
2023-03-01T11:01:32.981Z,56.68
2023-03-01T11:04:15.478Z,56.75
2023-03-01T11:06:44.541Z,56.31
2023-03-01T11:09:21.985Z,56.52
2023-03-01T11:11:55.241Z,56.33
2023-03-01T11:14:27.907Z,55.84
2023-03-01T11:17:05.357Z,55.07
2023-03-01T11:19:35.603Z,54.43
2023-03-01T11:22:08.535Z,54.53
2023-03-01T11:24:43.833Z,54.35
2023-03-01T11:27:23.446Z,52.92
2023-03-01T11:29:58.570Z,54.62
2023-03-01T11:32:34.222Z,53.82
2023-03-01T11:35:08.530Z,53.78
2023-03-01T11:37:42.929Z,53.48
2023-03-01T11:40:24.803Z,53.35
2023-03-01T11:43:07.181Z,54.00
2023-03-01T11:45:57.431Z,54.17
2023-03-01T11:48:49.942Z,53.99
2023-03-01T11:51:27.452Z,53.41
2023-03-01T11:54:09.489Z,53.04
2023-03-01T11:59:56.236Z,53.91
2023-03-01T12:02:56.956Z,54.08
2023-03-01T12:05:58.962Z,53.37
2023-03-01T12:08:36.879Z,53.57
2023-03-01T12:11:15.815Z,53.47
2023-03-01T12:14:12.705Z,53.40
2023-03-01T12:17:15.147Z,54.05
2023-03-01T12:20:02.283Z,53.79
2023-03-01T12:22:47.684Z,53.24
2023-03-01T12:25:27.430Z,52.39
2023-03-01T12:28:27.673Z,53.42
2023-03-01T12:31:26.014Z,52.77
2023-03-01T12:33:59.934Z,52.54
2023-03-01T12:36:51.779Z,51.71
2023-03-01T12:42:27.794Z,51.83
2023-03-01T12:45:30.677Z,51.63
2023-03-01T12:53:24.586Z,52.96
2023-03-01T12:55:56.573Z,53.42
2023-03-01T12:58:47.647Z,53.66
2023-03-01T13:01:28.444Z,51.90
2023-03-01T13:04:19.350Z,51.57
2023-03-01T13:07:03.084Z,51.86
2023-03-01T13:09:44.157Z,52.26
2023-03-01T13:12:43.780Z,52.23
2023-03-01T13:15:29.401Z,53.03
2023-03-01T13:18:06.108Z,53.15
2023-03-01T13:20:48.580Z,53.48
2023-03-01T13:23:28.862Z,53.65
2023-03-01T13:26:17.610Z,53.59
2023-03-01T13:28:56.608Z,53.61
2023-03-01T13:31:55.513Z,53.91
2023-03-01T13:34:44.443Z,53.89
2023-03-01T13:37:21.345Z,53.27
2023-03-01T13:39:51.973Z,53.59
2023-03-01T13:43:05.653Z,54.54
2023-03-01T13:45:41.236Z,55.30
2023-03-01T13:48:14.508Z,55.73
2023-03-01T13:50:50.774Z,56.27
2023-03-01T13:53:23.061Z,56.61
2023-03-01T13:55:55.751Z,56.62
2023-03-01T13:58:28.962Z,57.05
2023-03-01T14:01:00.498Z,57.32
2023-03-01T14:03:35.322Z,57.08
2023-03-01T14:06:19.714Z,57.50
2023-03-01T14:08:53.452Z,57.60
2023-03-01T14:11:57.440Z,57.45
2023-03-01T14:14:42.532Z,57.93
2023-03-01T14:17:41.382Z,58.12
2023-03-01T14:20:20.259Z,57.95
2023-03-01T14:22:51.372Z,57.95
2023-03-01T14:28:06.101Z,57.93
2023-03-01T14:30:41.683Z,58.71
2023-03-01T14:33:23.419Z,59.05
2023-03-01T14:35:59.100Z,58.11
2023-03-01T14:38:37.412Z,57.30
2023-03-01T14:41:17.608Z,57.39
2023-03-01T14:43:49.232Z,57.06
2023-03-01T14:46:34.284Z,57.86
2023-03-01T14:49:07.724Z,58.28
2023-03-01T14:51:40.178Z,57.81
2023-03-01T14:54:24.194Z,58.20
2023-03-01T14:59:31.235Z,58.93
2023-03-01T15:02:03.066Z,59.56
2023-03-01T15:04:34.457Z,59.21
2023-03-01T15:07:05.428Z,59.35
2023-03-01T15:09:37.443Z,59.84
2023-03-01T15:12:42.234Z,60.37
2023-03-01T15:15:33.103Z,61.39
2023-03-01T15:18:06.627Z,61.48
2023-03-01T15:20:40.424Z,61.59
2023-03-01T15:23:22.353Z,61.90
2023-03-01T15:25:59.137Z,61.70
2023-03-01T15:28:31.257Z,61.79
2023-03-01T15:31:04.782Z,62.05
2023-03-01T15:33:39.034Z,62.51
2023-03-01T15:36:34.440Z,62.58
2023-03-01T15:39:06.747Z,62.75
2023-03-01T15:41:50.412Z,63.27
2023-03-01T15:44:42.791Z,64.10
2023-03-01T15:47:32.575Z,64.94
2023-03-01T15:50:03.944Z,65.56
2023-03-01T15:52:55.920Z,65.55
2023-03-01T15:55:29.285Z,65.52
2023-03-01T15:58:03.333Z,66.01
2023-03-01T16:00:32.956Z,65.66
2023-03-01T16:03:02.476Z,65.67
2023-03-01T16:05:36.814Z,65.38
2023-03-01T16:08:06.930Z,65.16
2023-03-01T16:10:44.390Z,65.17
2023-03-01T16:13:14.375Z,65.22
2023-03-01T16:15:44.412Z,65.03
2023-03-01T16:18:23.510Z,64.07
2023-03-01T16:23:36.526Z,63.30
2023-03-01T16:28:41.298Z,62.15
2023-03-01T16:31:13.489Z,62.80
2023-03-01T16:33:43.316Z,62.74
2023-03-01T16:36:15.175Z,61.83
2023-03-01T16:38:51.176Z,61.92
2023-03-01T16:41:22.629Z,61.63
2023-03-01T16:43:52.255Z,61.55
2023-03-01T16:46:23.937Z,61.69
2023-03-01T16:49:03.920Z,61.98
2023-03-01T16:51:36.328Z,62.00
2023-03-01T16:54:10.690Z,62.03
2023-03-01T16:56:42.411Z,61.98
2023-03-01T16:59:18.864Z,61.87
2023-03-01T17:01:48.106Z,62.33
2023-03-01T17:04:19.351Z,62.47
2023-03-01T17:06:50.753Z,62.66
2023-03-01T17:09:22.534Z,63.24
2023-03-01T17:11:51.718Z,63.45
2023-03-01T17:14:20.965Z,63.78
2023-03-01T17:16:50.382Z,64.22
2023-03-01T17:19:20.633Z,64.76
2023-03-01T17:21:51.776Z,64.96
2023-03-01T17:24:21.148Z,64.86
2023-03-01T17:26:50.265Z,65.17
2023-03-01T17:29:20.113Z,65.30
2023-03-01T17:31:49.565Z,65.77
2023-03-01T17:34:19.242Z,65.60
2023-03-01T17:36:50.410Z,65.52
2023-03-01T17:39:25.519Z,65.70
2023-03-01T17:41:54.825Z,65.45
2023-03-01T17:44:24.133Z,65.23
2023-03-01T17:46:53.419Z,65.54
2023-03-01T17:49:22.872Z,65.75
2023-03-01T17:51:52.131Z,66.19
2023-03-01T17:54:23.278Z,65.99
2023-03-01T17:56:53.377Z,65.79
2023-03-01T17:59:22.569Z,66.05
2023-03-01T18:01:52.667Z,66.19
2023-03-01T18:04:22.432Z,65.80
2023-03-01T18:06:51.923Z,65.91
2023-03-01T18:09:23.520Z,66.11
2023-03-01T18:11:53.542Z,66.77
2023-03-01T18:14:22.675Z,66.53
2023-03-01T18:16:57.068Z,67.29
2023-03-01T18:19:26.454Z,67.63
2023-03-01T18:21:56.001Z,68.27
2023-03-01T18:24:32.587Z,68.10
2023-03-01T18:27:01.733Z,68.65
2023-03-01T18:29:30.934Z,69.01
2023-03-01T18:32:00.456Z,68.82
2023-03-01T18:34:29.899Z,68.86
2023-03-01T18:37:09.666Z,68.78
2023-03-01T18:39:41.827Z,69.22
2023-03-01T18:42:11.322Z,69.47
2023-03-01T18:44:40.411Z,69.46
2023-03-01T18:47:09.672Z,69.86
2023-03-01T18:49:39.128Z,70.37
2023-03-01T18:52:08.400Z,70.30
2023-03-01T18:54:37.911Z,70.20
2023-03-01T18:57:09.101Z,70.78
2023-03-01T18:59:43.360Z,70.18
2023-03-01T19:02:15.132Z,70.18
2023-03-01T19:04:45.589Z,70.79
2023-03-01T19:07:14.702Z,70.73
2023-03-01T19:09:43.987Z,70.80
2023-03-01T19:12:21.646Z,70.99
2023-03-01T19:14:56.258Z,70.83
2023-03-01T19:17:30.577Z,70.91
2023-03-01T19:20:00.184Z,71.06
2023-03-01T19:22:29.660Z,71.21
2023-03-01T19:24:59.113Z,71.44
2023-03-01T19:27:30.309Z,71.65
2023-03-01T19:29:59.515Z,71.40
2023-03-01T19:32:34.526Z,71.26
2023-03-01T19:35:05.545Z,71.25
2023-03-01T19:37:36.262Z,71.51
2023-03-01T19:40:05.696Z,71.59
2023-03-01T19:42:36.828Z,71.67
2023-03-01T19:45:06.924Z,71.65
2023-03-01T19:47:41.234Z,71.48
2023-03-01T19:50:13.813Z,71.60
2023-03-01T19:52:43.102Z,72.29
2023-03-01T19:55:13.311Z,72.06
2023-03-01T19:57:49.758Z,72.72
2023-03-01T20:00:20.345Z,73.17
2023-03-01T20:02:49.648Z,72.70
2023-03-01T20:05:18.930Z,73.37
2023-03-01T20:07:57.250Z,73.17
2023-03-01T20:10:27.074Z,73.99
2023-03-01T20:12:58.256Z,73.76
2023-03-01T20:15:27.921Z,73.81
2023-03-01T20:17:57.004Z,73.99
2023-03-01T20:20:26.196Z,74.27
2023-03-01T20:22:55.414Z,74.92
2023-03-01T20:25:24.657Z,74.18
2023-03-01T20:27:53.897Z,74.78
2023-03-01T20:30:25.490Z,74.55
2023-03-01T20:32:54.717Z,74.96
2023-03-01T20:35:23.915Z,74.65
2023-03-01T20:40:40.414Z,74.65
2023-03-01T20:43:09.686Z,74.90
2023-03-01T20:45:41.758Z,75.39
2023-03-01T20:48:10.961Z,75.12
2023-03-01T20:50:42.689Z,75.19
2023-03-01T20:53:12.065Z,75.13
2023-03-01T20:55:41.193Z,75.44
2023-03-01T20:58:10.480Z,76.53
2023-03-01T21:00:41.910Z,76.82
2023-03-01T21:03:11.544Z,78.17
2023-03-01T21:05:42.144Z,78.98
2023-03-01T21:08:11.355Z,80.57
2023-03-01T21:10:40.606Z,80.94
2023-03-01T21:13:23.723Z,82.89
2023-03-01T21:16:00.533Z,82.42
2023-03-01T21:18:30.596Z,82.74
2023-03-01T21:21:01.919Z,83.05
2023-03-01T21:23:38.735Z,83.45
2023-03-01T21:26:15.352Z,83.81
2023-03-01T21:28:45.422Z,84.56
2023-03-01T21:31:18.533Z,85.00
2023-03-01T21:33:49.486Z,84.91
2023-03-01T21:36:19.487Z,85.03
2023-03-01T21:38:50.323Z,84.87
2023-03-01T21:44:08.645Z,85.56
2023-03-01T21:46:51.298Z,85.59
2023-03-01T21:49:20.927Z,85.00
2023-03-01T21:51:50.600Z,85.61
2023-03-01T21:54:24.884Z,85.36
2023-03-01T21:56:53.873Z,85.46
2023-03-01T21:59:24.932Z,85.63
2023-03-01T22:01:56.065Z,85.98
2023-03-01T22:04:25.454Z,86.10
2023-03-01T22:06:54.594Z,85.27
2023-03-01T22:09:29.724Z,85.85
2023-03-01T22:12:01.893Z,86.16
2023-03-01T22:14:38.231Z,85.58
2023-03-01T22:17:14.471Z,86.12
2023-03-01T22:19:48.614Z,86.20
2023-03-01T22:22:17.750Z,86.30
2023-03-01T22:24:46.882Z,85.63
2023-03-01T22:27:16.157Z,85.46
2023-03-01T22:29:45.139Z,84.81
2023-03-01T22:32:16.486Z,85.20
2023-03-01T22:34:52.788Z,84.65
2023-03-01T22:37:22.026Z,85.19
2023-03-01T22:39:51.168Z,85.29
2023-03-01T22:42:21.038Z,85.05
2023-03-01T22:44:50.290Z,84.87
2023-03-01T22:47:26.466Z,84.92
2023-03-01T22:49:56.949Z,84.53
2023-03-01T22:52:25.958Z,84.76
2023-03-01T22:54:56.167Z,84.91
2023-03-01T22:57:32.157Z,84.53
2023-03-01T23:00:01.420Z,84.32
2023-03-01T23:02:36.867Z,84.31
2023-03-01T23:05:06.328Z,84.28
2023-03-01T23:07:35.482Z,84.32
2023-03-01T23:10:04.755Z,84.43
2023-03-01T23:12:34.079Z,84.35
2023-03-01T23:15:03.295Z,84.24
2023-03-01T23:17:34.661Z,84.04
2023-03-01T23:20:07.029Z,83.88
2023-03-01T23:22:36.354Z,83.93
2023-03-01T23:25:06.972Z,83.95
2023-03-01T23:27:38.229Z,83.76
2023-03-01T23:30:08.961Z,83.83
2023-03-01T23:32:40.577Z,83.75
2023-03-01T23:35:11.147Z,83.74
2023-03-01T23:37:40.298Z,83.71
2023-03-01T23:40:10.872Z,83.55
2023-03-01T23:42:40.116Z,84.01
2023-03-01T23:45:10.592Z,84.38
2023-03-01T23:47:51.876Z,84.25
2023-03-01T23:50:21.316Z,84.40
2023-03-01T23:52:50.441Z,83.86
2023-03-01T23:55:26.070Z,84.11
2023-03-01T23:57:55.276Z,84.36
